sensor_id;sensor_type;location;lat;lon;timestamp;temperature;humidity
13794;DHT22;31160;49.500;7.772;2024-02-04T00:02:02;8.50;99.90
13794;DHT22;31160;49.500;7.772;2024-02-04T00:04:30;8.50;99.90
13794;DHT22;31160;49.500;7.772;2024-02-04T00:06:59;8.60;99.90
13794;DHT22;31160;49.500;7.772;2024-02-04T00:09:26;8.60;99.90
13794;DHT22;31160;49.500;7.772;2024-02-04T00:11:55;8.60;99.90
13794;DHT22;31160;49.500;7.772;2024-02-04T00:14:22;8.50;99.90
13794;DHT22;31160;49.500;7.772;2024-02-04T00:16:48;8.70;99.90
13794;DHT22;31160;49.500;7.772;2024-02-04T00:19:15;8.70;99.90
13794;DHT22;31160;49.500;7.772;2024-02-04T00:21:42;8.60;99.90
13794;DHT22;31160;49.500;7.772;2024-02-04T00:24:09;8.60;99.90
13794;DHT22;31160;49.500;7.772;2024-02-04T00:26:35;8.70;99.90
13794;DHT22;31160;49.500;7.772;2024-02-04T00:29:02;8.80;99.90
13794;DHT22;31160;49.500;7.772;2024-02-04T00:31:29;8.70;99.90
13794;DHT22;31160;49.500;7.772;2024-02-04T00:33:56;8.60;99.90
13794;DHT22;31160;49.500;7.772;2024-02-04T00:36:23;8.50;99.90
13794;DHT22;31160;49.500;7.772;2024-02-04T00:38:50;8.50;99.90
13794;DHT22;31160;49.500;7.772;2024-02-04T00:41:16;8.40;99.90
13794;DHT22;31160;49.500;7.772;2024-02-04T00:43:43;8.40;99.90
13794;DHT22;31160;49.500;7.772;2024-02-04T00:46:10;8.40;99.90
13794;DHT22;31160;49.500;7.772;2024-02-04T00:48:37;8.40;99.90
13794;DHT22;31160;49.500;7.772;2024-02-04T00:51:04;8.40;99.90
13794;DHT22;31160;49.500;7.772;2024-02-04T00:53:31;8.50;99.90
13794;DHT22;31160;49.500;7.772;2024-02-04T00:56:04;8.40;99.90
13794;DHT22;31160;49.500;7.772;2024-02-04T00:58:31;8.40;99.90
13794;DHT22;31160;49.500;7.772;2024-02-04T01:00:58;8.40;99.90
13794;DHT22;31160;49.500;7.772;2024-02-04T01:03:24;8.30;99.90
13794;DHT22;31160;49.500;7.772;2024-02-04T01:05:51;8.30;99.90
13794;DHT22;31160;49.500;7.772;2024-02-04T01:08:18;8.30;99.90
13794;DHT22;31160;49.500;7.772;2024-02-04T01:10:45;8.20;99.90
13794;DHT22;31160;49.500;7.772;2024-02-04T01:13:12;8.20;99.90
13794;DHT22;31160;49.500;7.772;2024-02-04T01:15:38;8.30;99.90
13794;DHT22;31160;49.500;7.772;2024-02-04T01:18:05;8.30;99.90
13794;DHT22;31160;49.500;7.772;2024-02-04T01:20:32;8.20;99.90
13794;DHT22;31160;49.500;7.772;2024-02-04T01:22:59;8.10;99.90
13794;DHT22;31160;49.500;7.772;2024-02-04T01:25:26;8.10;99.90
13794;DHT22;31160;49.500;7.772;2024-02-04T01:27:52;8.10;99.90
13794;DHT22;31160;49.500;7.772;2024-02-04T01:30:20;8.10;99.90
13794;DHT22;31160;49.500;7.772;2024-02-04T01:32:47;8.10;99.90
13794;DHT22;31160;49.500;7.772;2024-02-04T01:35:14;8.20;99.90
13794;DHT22;31160;49.500;7.772;2024-02-04T01:37:42;8.10;99.90
13794;DHT22;31160;49.500;7.772;2024-02-04T01:40:15;8.00;99.90
13794;DHT22;31160;49.500;7.772;2024-02-04T01:42:42;8.00;99.90
13794;DHT22;31160;49.500;7.772;2024-02-04T01:45:09;8.00;99.90
13794;DHT22;31160;49.500;7.772;2024-02-04T01:47:36;8.10;99.90
13794;DHT22;31160;49.500;7.772;2024-02-04T01:50:04;8.10;99.90
13794;DHT22;31160;49.500;7.772;2024-02-04T01:52:33;8.10;99.90
13794;DHT22;31160;49.500;7.772;2024-02-04T01:55:00;8.00;99.90
13794;DHT22;31160;49.500;7.772;2024-02-04T01:57:29;8.10;99.90
13794;DHT22;31160;49.500;7.772;2024-02-04T01:59:56;8.10;99.90
13794;DHT22;31160;49.500;7.772;2024-02-04T02:02:25;8.10;99.90
13794;DHT22;31160;49.500;7.772;2024-02-04T02:04:51;8.00;99.90
13794;DHT22;31160;49.500;7.772;2024-02-04T02:07:18;8.00;99.90
13794;DHT22;31160;49.500;7.772;2024-02-04T02:09:47;8.20;99.90
13794;DHT22;31160;49.500;7.772;2024-02-04T02:12:19;8.20;99.90
13794;DHT22;31160;49.500;7.772;2024-02-04T02:14:57;8.10;99.90
13794;DHT22;31160;49.500;7.772;2024-02-04T02:17:42;8.20;99.90
13794;DHT22;31160;49.500;7.772;2024-02-04T02:20:21;8.20;99.90
13794;DHT22;31160;49.500;7.772;2024-02-04T02:22:56;8.20;99.90
13794;DHT22;31160;49.500;7.772;2024-02-04T02:25:28;8.10;99.90
13794;DHT22;31160;49.500;7.772;2024-02-04T02:27:54;8.10;99.90
13794;DHT22;31160;49.500;7.772;2024-02-04T02:30:21;8.00;99.90
13794;DHT22;31160;49.500;7.772;2024-02-04T02:32:49;8.10;99.90
13794;DHT22;31160;49.500;7.772;2024-02-04T02:35:17;8.10;99.90
13794;DHT22;31160;49.500;7.772;2024-02-04T02:37:56;8.10;99.90
13794;DHT22;31160;49.500;7.772;2024-02-04T02:40:34;8.10;99.90
13794;DHT22;31160;49.500;7.772;2024-02-04T02:43:04;8.20;99.90
13794;DHT22;31160;49.500;7.772;2024-02-04T02:45:32;8.20;99.90
13794;DHT22;31160;49.500;7.772;2024-02-04T02:47:59;8.20;99.90
13794;DHT22;31160;49.500;7.772;2024-02-04T02:50:27;8.20;99.90
13794;DHT22;31160;49.500;7.772;2024-02-04T02:52:55;8.10;99.90
13794;DHT22;31160;49.500;7.772;2024-02-04T02:55:22;8.10;99.90
13794;DHT22;31160;49.500;7.772;2024-02-04T02:57:48;8.10;99.90
13794;DHT22;31160;49.500;7.772;2024-02-04T03:00:16;8.20;99.90
13794;DHT22;31160;49.500;7.772;2024-02-04T03:02:42;8.10;99.90
13794;DHT22;31160;49.500;7.772;2024-02-04T03:05:09;8.20;99.90
13794;DHT22;31160;49.500;7.772;2024-02-04T03:07:36;8.20;99.90
13794;DHT22;31160;49.500;7.772;2024-02-04T03:10:03;8.10;99.90
13794;DHT22;31160;49.500;7.772;2024-02-04T03:12:30;8.00;99.90
13794;DHT22;31160;49.500;7.772;2024-02-04T03:14:57;8.10;99.90
13794;DHT22;31160;49.500;7.772;2024-02-04T03:17:23;8.10;99.90
13794;DHT22;31160;49.500;7.772;2024-02-04T03:19:52;8.10;99.90
13794;DHT22;31160;49.500;7.772;2024-02-04T03:22:21;8.20;99.90
13794;DHT22;31160;49.500;7.772;2024-02-04T03:24:49;8.20;99.90
13794;DHT22;31160;49.500;7.772;2024-02-04T03:27:20;8.10;99.90
13794;DHT22;31160;49.500;7.772;2024-02-04T03:29:47;8.10;99.90
13794;DHT22;31160;49.500;7.772;2024-02-04T03:32:14;8.10;99.90
13794;DHT22;31160;49.500;7.772;2024-02-04T03:34:41;8.10;99.90
13794;DHT22;31160;49.500;7.772;2024-02-04T03:37:09;8.10;99.90
13794;DHT22;31160;49.500;7.772;2024-02-04T03:39:36;8.20;99.90
13794;DHT22;31160;49.500;7.772;2024-02-04T03:42:03;8.10;99.90
13794;DHT22;31160;49.500;7.772;2024-02-04T03:44:30;8.10;99.90
13794;DHT22;31160;49.500;7.772;2024-02-04T03:46:56;8.20;99.90
13794;DHT22;31160;49.500;7.772;2024-02-04T03:49:23;8.20;99.90
13794;DHT22;31160;49.500;7.772;2024-02-04T03:51:50;7.90;99.90
13794;DHT22;31160;49.500;7.772;2024-02-04T03:54:18;7.90;99.90
13794;DHT22;31160;49.500;7.772;2024-02-04T03:56:46;8.00;99.90
13794;DHT22;31160;49.500;7.772;2024-02-04T03:59:12;7.90;99.90
13794;DHT22;31160;49.500;7.772;2024-02-04T04:01:39;8.10;99.90
13794;DHT22;31160;49.500;7.772;2024-02-04T04:04:06;8.10;99.90
13794;DHT22;31160;49.500;7.772;2024-02-04T04:06:34;8.00;99.90
13794;DHT22;31160;49.500;7.772;2024-02-04T04:09:00;8.10;99.90
13794;DHT22;31160;49.500;7.772;2024-02-04T04:11:27;8.10;99.90
13794;DHT22;31160;49.500;7.772;2024-02-04T04:13:54;8.00;99.90
13794;DHT22;31160;49.500;7.772;2024-02-04T04:16:21;8.00;99.90
13794;DHT22;31160;49.500;7.772;2024-02-04T04:18:49;7.90;99.90
13794;DHT22;31160;49.500;7.772;2024-02-04T04:21:16;8.00;99.90
13794;DHT22;31160;49.500;7.772;2024-02-04T04:23:43;8.10;99.90
13794;DHT22;31160;49.500;7.772;2024-02-04T04:26:10;8.00;99.90
13794;DHT22;31160;49.500;7.772;2024-02-04T04:28:37;8.10;99.90
13794;DHT22;31160;49.500;7.772;2024-02-04T04:31:04;8.00;99.90
13794;DHT22;31160;49.500;7.772;2024-02-04T04:33:31;8.10;99.90
13794;DHT22;31160;49.500;7.772;2024-02-04T04:35:58;8.00;99.90
13794;DHT22;31160;49.500;7.772;2024-02-04T04:38:25;8.00;99.90
13794;DHT22;31160;49.500;7.772;2024-02-04T04:40:52;8.00;99.90
13794;DHT22;31160;49.500;7.772;2024-02-04T04:43:18;8.10;99.90
13794;DHT22;31160;49.500;7.772;2024-02-04T04:45:45;8.20;99.90
13794;DHT22;31160;49.500;7.772;2024-02-04T04:48:12;8.20;99.90
13794;DHT22;31160;49.500;7.772;2024-02-04T04:50:39;8.20;99.90
13794;DHT22;31160;49.500;7.772;2024-02-04T04:53:05;8.20;99.90
13794;DHT22;31160;49.500;7.772;2024-02-04T04:55:32;8.30;99.90
13794;DHT22;31160;49.500;7.772;2024-02-04T04:57:59;8.30;99.90
13794;DHT22;31160;49.500;7.772;2024-02-04T05:00:26;8.20;99.90
13794;DHT22;31160;49.500;7.772;2024-02-04T05:02:52;8.20;99.90
13794;DHT22;31160;49.500;7.772;2024-02-04T05:05:19;8.20;99.90
13794;DHT22;31160;49.500;7.772;2024-02-04T05:07:46;8.10;99.90
13794;DHT22;31160;49.500;7.772;2024-02-04T05:10:13;8.00;99.90
13794;DHT22;31160;49.500;7.772;2024-02-04T05:12:40;8.10;99.90
13794;DHT22;31160;49.500;7.772;2024-02-04T05:15:08;8.10;99.90
13794;DHT22;31160;49.500;7.772;2024-02-04T05:17:34;8.10;99.90
13794;DHT22;31160;49.500;7.772;2024-02-04T05:20:02;8.10;99.90
13794;DHT22;31160;49.500;7.772;2024-02-04T05:22:31;8.00;99.90
13794;DHT22;31160;49.500;7.772;2024-02-04T05:24:58;7.90;99.90
13794;DHT22;31160;49.500;7.772;2024-02-04T05:27:25;8.00;99.90
13794;DHT22;31160;49.500;7.772;2024-02-04T05:29:52;8.10;99.90
13794;DHT22;31160;49.500;7.772;2024-02-04T05:32:19;8.10;99.90
13794;DHT22;31160;49.500;7.772;2024-02-04T05:34:46;8.00;99.90
13794;DHT22;31160;49.500;7.772;2024-02-04T05:37:13;8.10;99.90
13794;DHT22;31160;49.500;7.772;2024-02-04T05:39:39;8.20;99.90
13794;DHT22;31160;49.500;7.772;2024-02-04T05:42:06;8.20;99.90
13794;DHT22;31160;49.500;7.772;2024-02-04T05:44:33;8.20;99.90
13794;DHT22;31160;49.500;7.772;2024-02-04T05:47:00;8.20;99.90
13794;DHT22;31160;49.500;7.772;2024-02-04T05:49:26;8.20;99.90
13794;DHT22;31160;49.500;7.772;2024-02-04T05:51:53;8.20;99.90
13794;DHT22;31160;49.500;7.772;2024-02-04T05:54:20;8.20;99.90
13794;DHT22;31160;49.500;7.772;2024-02-04T05:56:47;8.20;99.90
13794;DHT22;31160;49.500;7.772;2024-02-04T05:59:14;8.20;99.90
13794;DHT22;31160;49.500;7.772;2024-02-04T06:01:42;8.20;99.90
13794;DHT22;31160;49.500;7.772;2024-02-04T06:04:10;8.20;99.90
13794;DHT22;31160;49.500;7.772;2024-02-04T06:06:37;8.10;99.90
13794;DHT22;31160;49.500;7.772;2024-02-04T06:09:04;8.20;99.90
13794;DHT22;31160;49.500;7.772;2024-02-04T06:11:30;8.10;99.90
13794;DHT22;31160;49.500;7.772;2024-02-04T06:13:57;8.10;99.90
13794;DHT22;31160;49.500;7.772;2024-02-04T06:16:24;8.00;99.90
13794;DHT22;31160;49.500;7.772;2024-02-04T06:18:50;8.00;99.90
13794;DHT22;31160;49.500;7.772;2024-02-04T06:21:17;8.10;99.90
13794;DHT22;31160;49.500;7.772;2024-02-04T06:23:44;8.10;99.90
13794;DHT22;31160;49.500;7.772;2024-02-04T06:26:11;8.00;99.90
13794;DHT22;31160;49.500;7.772;2024-02-04T06:28:37;8.00;99.90
13794;DHT22;31160;49.500;7.772;2024-02-04T06:31:08;8.00;99.90
13794;DHT22;31160;49.500;7.772;2024-02-04T06:33:35;7.90;99.90
13794;DHT22;31160;49.500;7.772;2024-02-04T06:36:02;8.00;99.90
13794;DHT22;31160;49.500;7.772;2024-02-04T06:38:29;8.00;99.90
13794;DHT22;31160;49.500;7.772;2024-02-04T06:40:56;8.00;99.90
13794;DHT22;31160;49.500;7.772;2024-02-04T06:43:23;8.10;99.90
13794;DHT22;31160;49.500;7.772;2024-02-04T06:45:49;8.10;99.90
13794;DHT22;31160;49.500;7.772;2024-02-04T06:48:19;8.00;99.90
13794;DHT22;31160;49.500;7.772;2024-02-04T06:50:46;7.80;99.90
13794;DHT22;31160;49.500;7.772;2024-02-04T06:53:14;7.70;99.90
13794;DHT22;31160;49.500;7.772;2024-02-04T06:55:41;7.80;99.90
13794;DHT22;31160;49.500;7.772;2024-02-04T06:58:08;7.70;99.90
13794;DHT22;31160;49.500;7.772;2024-02-04T07:00:35;7.70;99.90
13794;DHT22;31160;49.500;7.772;2024-02-04T07:03:02;7.70;99.90
13794;DHT22;31160;49.500;7.772;2024-02-04T07:05:28;7.80;99.90
13794;DHT22;31160;49.500;7.772;2024-02-04T07:07:56;7.80;99.90
13794;DHT22;31160;49.500;7.772;2024-02-04T07:10:22;7.80;99.90
13794;DHT22;31160;49.500;7.772;2024-02-04T07:12:49;7.70;99.90
13794;DHT22;31160;49.500;7.772;2024-02-04T07:15:16;7.70;99.90
13794;DHT22;31160;49.500;7.772;2024-02-04T07:17:42;7.70;99.90
13794;DHT22;31160;49.500;7.772;2024-02-04T07:20:09;7.70;99.90
13794;DHT22;31160;49.500;7.772;2024-02-04T07:22:36;7.70;99.90
13794;DHT22;31160;49.500;7.772;2024-02-04T07:25:04;7.80;99.90
13794;DHT22;31160;49.500;7.772;2024-02-04T07:27:31;7.80;99.90
13794;DHT22;31160;49.500;7.772;2024-02-04T07:29:58;7.80;99.90
13794;DHT22;31160;49.500;7.772;2024-02-04T07:32:25;7.80;99.90
13794;DHT22;31160;49.500;7.772;2024-02-04T07:34:51;7.90;99.90
13794;DHT22;31160;49.500;7.772;2024-02-04T07:37:18;7.90;99.90
13794;DHT22;31160;49.500;7.772;2024-02-04T07:39:46;7.80;99.90
13794;DHT22;31160;49.500;7.772;2024-02-04T07:42:12;7.80;99.90
13794;DHT22;31160;49.500;7.772;2024-02-04T07:44:40;7.80;99.90
13794;DHT22;31160;49.500;7.772;2024-02-04T07:47:06;7.80;99.90
13794;DHT22;31160;49.500;7.772;2024-02-04T07:49:33;7.80;99.90
13794;DHT22;31160;49.500;7.772;2024-02-04T07:52:00;7.70;99.90
13794;DHT22;31160;49.500;7.772;2024-02-04T07:54:27;7.70;99.90
13794;DHT22;31160;49.500;7.772;2024-02-04T07:56:54;7.80;99.90
13794;DHT22;31160;49.500;7.772;2024-02-04T07:59:21;7.90;99.90
13794;DHT22;31160;49.500;7.772;2024-02-04T08:01:48;7.90;99.90
13794;DHT22;31160;49.500;7.772;2024-02-04T08:04:15;8.00;99.90
13794;DHT22;31160;49.500;7.772;2024-02-04T08:06:42;8.10;99.90
13794;DHT22;31160;49.500;7.772;2024-02-04T08:09:09;8.00;99.90
13794;DHT22;31160;49.500;7.772;2024-02-04T08:11:36;8.00;99.90
13794;DHT22;31160;49.500;7.772;2024-02-04T08:14:03;8.10;99.90
13794;DHT22;31160;49.500;7.772;2024-02-04T08:16:29;8.10;99.90
13794;DHT22;31160;49.500;7.772;2024-02-04T08:18:56;8.10;99.90
13794;DHT22;31160;49.500;7.772;2024-02-04T08:21:23;8.00;99.90
13794;DHT22;31160;49.500;7.772;2024-02-04T08:23:50;7.90;99.90
13794;DHT22;31160;49.500;7.772;2024-02-04T08:26:17;7.90;99.90
13794;DHT22;31160;49.500;7.772;2024-02-04T08:28:44;8.00;99.90
13794;DHT22;31160;49.500;7.772;2024-02-04T08:31:11;8.00;99.90
13794;DHT22;31160;49.500;7.772;2024-02-04T08:33:38;7.90;99.90
13794;DHT22;31160;49.500;7.772;2024-02-04T08:36:05;8.00;99.90
13794;DHT22;31160;49.500;7.772;2024-02-04T08:38:33;8.00;99.90
13794;DHT22;31160;49.500;7.772;2024-02-04T08:41:00;7.90;99.90
13794;DHT22;31160;49.500;7.772;2024-02-04T08:43:26;8.00;99.90
13794;DHT22;31160;49.500;7.772;2024-02-04T08:45:53;8.10;99.90
13794;DHT22;31160;49.500;7.772;2024-02-04T08:48:20;8.10;99.90
13794;DHT22;31160;49.500;7.772;2024-02-04T08:50:47;8.00;99.90
13794;DHT22;31160;49.500;7.772;2024-02-04T08:53:13;8.10;99.90
13794;DHT22;31160;49.500;7.772;2024-02-04T08:55:40;8.10;99.90
13794;DHT22;31160;49.500;7.772;2024-02-04T08:58:07;8.10;99.90
13794;DHT22;31160;49.500;7.772;2024-02-04T09:00:34;8.10;99.90
13794;DHT22;31160;49.500;7.772;2024-02-04T09:03:01;8.10;99.90
13794;DHT22;31160;49.500;7.772;2024-02-04T09:05:28;8.10;99.90
13794;DHT22;31160;49.500;7.772;2024-02-04T09:07:54;8.10;99.90
13794;DHT22;31160;49.500;7.772;2024-02-04T09:10:22;8.20;99.90
13794;DHT22;31160;49.500;7.772;2024-02-04T09:12:49;8.10;99.90
13794;DHT22;31160;49.500;7.772;2024-02-04T09:15:16;8.20;99.90
13794;DHT22;31160;49.500;7.772;2024-02-04T09:17:43;8.20;99.90
13794;DHT22;31160;49.500;7.772;2024-02-04T09:20:10;8.00;99.90
13794;DHT22;31160;49.500;7.772;2024-02-04T09:22:37;8.10;99.90
13794;DHT22;31160;49.500;7.772;2024-02-04T09:25:06;8.10;99.90
13794;DHT22;31160;49.500;7.772;2024-02-04T09:27:32;8.00;99.90
13794;DHT22;31160;49.500;7.772;2024-02-04T09:29:59;8.00;99.90
13794;DHT22;31160;49.500;7.772;2024-02-04T09:32:26;8.10;99.90
13794;DHT22;31160;49.500;7.772;2024-02-04T09:34:53;8.10;99.90
13794;DHT22;31160;49.500;7.772;2024-02-04T09:37:20;8.00;99.90
13794;DHT22;31160;49.500;7.772;2024-02-04T09:39:47;8.10;99.90
13794;DHT22;31160;49.500;7.772;2024-02-04T09:42:20;8.10;99.90
13794;DHT22;31160;49.500;7.772;2024-02-04T09:44:51;8.10;99.90
13794;DHT22;31160;49.500;7.772;2024-02-04T09:47:18;8.20;99.90
13794;DHT22;31160;49.500;7.772;2024-02-04T09:49:45;8.10;99.90
13794;DHT22;31160;49.500;7.772;2024-02-04T09:52:13;8.30;99.90
13794;DHT22;31160;49.500;7.772;2024-02-04T09:55:00;8.20;99.90
13794;DHT22;31160;49.500;7.772;2024-02-04T09:57:32;8.30;99.90
13794;DHT22;31160;49.500;7.772;2024-02-04T10:00:02;8.20;99.90
13794;DHT22;31160;49.500;7.772;2024-02-04T10:02:37;8.40;99.90
13794;DHT22;31160;49.500;7.772;2024-02-04T10:05:04;8.50;99.90
13794;DHT22;31160;49.500;7.772;2024-02-04T10:07:31;8.40;99.90
13794;DHT22;31160;49.500;7.772;2024-02-04T10:09:58;8.50;99.90
13794;DHT22;31160;49.500;7.772;2024-02-04T10:12:25;8.60;99.90
13794;DHT22;31160;49.500;7.772;2024-02-04T10:14:52;8.50;99.90
13794;DHT22;31160;49.500;7.772;2024-02-04T10:17:19;8.50;99.90
13794;DHT22;31160;49.500;7.772;2024-02-04T10:19:49;8.70;99.90
13794;DHT22;31160;49.500;7.772;2024-02-04T10:22:16;8.50;99.90
13794;DHT22;31160;49.500;7.772;2024-02-04T10:24:44;8.50;99.90
13794;DHT22;31160;49.500;7.772;2024-02-04T10:27:10;8.50;99.90
13794;DHT22;31160;49.500;7.772;2024-02-04T10:29:48;8.60;99.90
13794;DHT22;31160;49.500;7.772;2024-02-04T10:32:15;8.60;99.90
13794;DHT22;31160;49.500;7.772;2024-02-04T10:34:49;8.70;99.90
13794;DHT22;31160;49.500;7.772;2024-02-04T10:37:16;8.60;99.90
13794;DHT22;31160;49.500;7.772;2024-02-04T10:39:43;8.60;99.90
13794;DHT22;31160;49.500;7.772;2024-02-04T10:42:11;8.50;99.90
13794;DHT22;31160;49.500;7.772;2024-02-04T10:44:42;8.60;99.90
13794;DHT22;31160;49.500;7.772;2024-02-04T10:47:13;8.50;99.90
13794;DHT22;31160;49.500;7.772;2024-02-04T10:49:50;8.60;99.90
13794;DHT22;31160;49.500;7.772;2024-02-04T10:52:18;8.50;99.90
13794;DHT22;31160;49.500;7.772;2024-02-04T10:54:46;8.50;99.90
13794;DHT22;31160;49.500;7.772;2024-02-04T10:57:13;8.40;99.90
13794;DHT22;31160;49.500;7.772;2024-02-04T10:59:47;8.40;99.90
13794;DHT22;31160;49.500;7.772;2024-02-04T11:02:15;8.50;99.90
13794;DHT22;31160;49.500;7.772;2024-02-04T11:04:42;8.50;99.90
13794;DHT22;31160;49.500;7.772;2024-02-04T11:07:10;8.60;99.90
13794;DHT22;31160;49.500;7.772;2024-02-04T11:09:40;8.70;99.90
13794;DHT22;31160;49.500;7.772;2024-02-04T11:12:11;8.70;99.90
13794;DHT22;31160;49.500;7.772;2024-02-04T11:14:41;8.80;99.90
13794;DHT22;31160;49.500;7.772;2024-02-04T11:20:28;8.70;99.90
13794;DHT22;31160;49.500;7.772;2024-02-04T11:25:56;8.70;99.90
13794;DHT22;31160;49.500;7.772;2024-02-04T11:28:26;8.60;99.90
13794;DHT22;31160;49.500;7.772;2024-02-04T11:30:55;8.60;99.90
13794;DHT22;31160;49.500;7.772;2024-02-04T11:33:23;8.70;99.90
13794;DHT22;31160;49.500;7.772;2024-02-04T11:36:02;8.70;99.90
13794;DHT22;31160;49.500;7.772;2024-02-04T11:38:31;8.60;99.90
13794;DHT22;31160;49.500;7.772;2024-02-04T11:40:59;8.60;99.90
13794;DHT22;31160;49.500;7.772;2024-02-04T11:43:25;8.50;99.90
13794;DHT22;31160;49.500;7.772;2024-02-04T11:45:52;8.50;99.90
13794;DHT22;31160;49.500;7.772;2024-02-04T11:48:32;8.60;99.90
13794;DHT22;31160;49.500;7.772;2024-02-04T11:51:00;8.50;99.90
13794;DHT22;31160;49.500;7.772;2024-02-04T11:53:29;8.50;99.90
13794;DHT22;31160;49.500;7.772;2024-02-04T11:56:03;8.50;99.90
13794;DHT22;31160;49.500;7.772;2024-02-04T11:58:31;8.60;99.90
13794;DHT22;31160;49.500;7.772;2024-02-04T12:00:58;8.70;99.90
13794;DHT22;31160;49.500;7.772;2024-02-04T12:03:30;8.70;99.90
13794;DHT22;31160;49.500;7.772;2024-02-04T12:05:57;8.60;99.90
13794;DHT22;31160;49.500;7.772;2024-02-04T12:08:26;8.70;99.90
13794;DHT22;31160;49.500;7.772;2024-02-04T12:10:54;8.80;99.90
13794;DHT22;31160;49.500;7.772;2024-02-04T12:13:21;8.60;99.90
13794;DHT22;31160;49.500;7.772;2024-02-04T12:15:48;8.70;99.90
13794;DHT22;31160;49.500;7.772;2024-02-04T12:18:18;8.80;99.90
13794;DHT22;31160;49.500;7.772;2024-02-04T12:20:48;8.70;99.90
13794;DHT22;31160;49.500;7.772;2024-02-04T12:23:17;8.70;99.90
13794;DHT22;31160;49.500;7.772;2024-02-04T12:25:44;8.80;99.90
13794;DHT22;31160;49.500;7.772;2024-02-04T12:28:11;8.80;99.90
13794;DHT22;31160;49.500;7.772;2024-02-04T12:30:40;8.80;99.90
13794;DHT22;31160;49.500;7.772;2024-02-04T12:33:07;8.70;99.90
13794;DHT22;31160;49.500;7.772;2024-02-04T12:35:35;8.70;99.90
13794;DHT22;31160;49.500;7.772;2024-02-04T12:38:02;8.70;99.90
13794;DHT22;31160;49.500;7.772;2024-02-04T12:40:30;8.70;99.90
13794;DHT22;31160;49.500;7.772;2024-02-04T12:43:00;8.70;99.90
13794;DHT22;31160;49.500;7.772;2024-02-04T12:45:33;8.80;99.90
13794;DHT22;31160;49.500;7.772;2024-02-04T12:48:01;8.80;99.90
13794;DHT22;31160;49.500;7.772;2024-02-04T12:50:28;8.70;99.90
13794;DHT22;31160;49.500;7.772;2024-02-04T12:53:06;8.70;99.90
13794;DHT22;31160;49.500;7.772;2024-02-04T12:55:35;8.70;99.90
13794;DHT22;31160;49.500;7.772;2024-02-04T12:58:12;8.70;99.90
13794;DHT22;31160;49.500;7.772;2024-02-04T13:00:41;8.70;99.90
13794;DHT22;31160;49.500;7.772;2024-02-04T13:03:08;8.80;99.90
13794;DHT22;31160;49.500;7.772;2024-02-04T13:05:36;8.70;99.90
13794;DHT22;31160;49.500;7.772;2024-02-04T13:08:04;8.80;99.90
13794;DHT22;31160;49.500;7.772;2024-02-04T13:10:33;8.70;99.90
13794;DHT22;31160;49.500;7.772;2024-02-04T13:13:05;8.80;99.90
13794;DHT22;31160;49.500;7.772;2024-02-04T13:15:39;8.90;99.90
13794;DHT22;31160;49.500;7.772;2024-02-04T13:18:07;8.80;99.90
13794;DHT22;31160;49.500;7.772;2024-02-04T13:20:37;8.70;99.90
13794;DHT22;31160;49.500;7.772;2024-02-04T13:23:04;8.60;99.90
13794;DHT22;31160;49.500;7.772;2024-02-04T13:25:32;8.60;99.90
13794;DHT22;31160;49.500;7.772;2024-02-04T13:28:00;8.70;99.90
13794;DHT22;31160;49.500;7.772;2024-02-04T13:30:27;8.70;99.90
13794;DHT22;31160;49.500;7.772;2024-02-04T13:32:54;8.80;99.90
13794;DHT22;31160;49.500;7.772;2024-02-04T13:35:23;8.80;99.90
13794;DHT22;31160;49.500;7.772;2024-02-04T13:37:50;8.80;99.90
13794;DHT22;31160;49.500;7.772;2024-02-04T13:40:19;8.80;99.90
13794;DHT22;31160;49.500;7.772;2024-02-04T13:42:47;8.80;99.90
13794;DHT22;31160;49.500;7.772;2024-02-04T13:45:14;8.70;99.90
13794;DHT22;31160;49.500;7.772;2024-02-04T13:47:41;8.80;99.90
13794;DHT22;31160;49.500;7.772;2024-02-04T13:50:10;8.80;99.90
13794;DHT22;31160;49.500;7.772;2024-02-04T13:52:37;8.70;99.90
13794;DHT22;31160;49.500;7.772;2024-02-04T13:55:05;8.70;99.90
13794;DHT22;31160;49.500;7.772;2024-02-04T13:57:33;8.90;99.90
13794;DHT22;31160;49.500;7.772;2024-02-04T14:00:00;8.80;99.90
13794;DHT22;31160;49.500;7.772;2024-02-04T14:02:30;8.80;99.90
13794;DHT22;31160;49.500;7.772;2024-02-04T14:04:57;8.90;99.90
13794;DHT22;31160;49.500;7.772;2024-02-04T14:07:25;8.80;99.90
13794;DHT22;31160;49.500;7.772;2024-02-04T14:09:52;8.80;99.90
13794;DHT22;31160;49.500;7.772;2024-02-04T14:12:19;8.80;99.90
13794;DHT22;31160;49.500;7.772;2024-02-04T14:14:46;8.80;99.90
13794;DHT22;31160;49.500;7.772;2024-02-04T14:17:12;8.80;99.90
13794;DHT22;31160;49.500;7.772;2024-02-04T14:19:40;8.90;99.90
13794;DHT22;31160;49.500;7.772;2024-02-04T14:22:07;8.90;99.90
13794;DHT22;31160;49.500;7.772;2024-02-04T14:24:34;8.80;99.90
13794;DHT22;31160;49.500;7.772;2024-02-04T14:27:01;8.80;99.90
13794;DHT22;31160;49.500;7.772;2024-02-04T14:29:28;9.00;99.90
13794;DHT22;31160;49.500;7.772;2024-02-04T14:31:54;8.90;99.90
13794;DHT22;31160;49.500;7.772;2024-02-04T14:34:22;8.90;99.90
13794;DHT22;31160;49.500;7.772;2024-02-04T14:36:49;8.90;99.90
13794;DHT22;31160;49.500;7.772;2024-02-04T14:39:16;8.90;99.90
13794;DHT22;31160;49.500;7.772;2024-02-04T14:41:43;8.90;99.90
13794;DHT22;31160;49.500;7.772;2024-02-04T14:44:10;8.90;99.90
13794;DHT22;31160;49.500;7.772;2024-02-04T14:46:38;8.90;99.90
13794;DHT22;31160;49.500;7.772;2024-02-04T14:49:06;8.90;99.90
13794;DHT22;31160;49.500;7.772;2024-02-04T14:51:32;8.90;99.90
13794;DHT22;31160;49.500;7.772;2024-02-04T14:54:00;8.90;99.90
13794;DHT22;31160;49.500;7.772;2024-02-04T14:56:27;8.90;99.90
13794;DHT22;31160;49.500;7.772;2024-02-04T14:58:53;9.00;99.90
13794;DHT22;31160;49.500;7.772;2024-02-04T15:01:21;9.00;99.90
13794;DHT22;31160;49.500;7.772;2024-02-04T15:03:48;9.10;99.90
13794;DHT22;31160;49.500;7.772;2024-02-04T15:06:15;9.00;99.90
13794;DHT22;31160;49.500;7.772;2024-02-04T15:08:42;8.90;99.90
13794;DHT22;31160;49.500;7.772;2024-02-04T15:11:10;8.90;99.90
13794;DHT22;31160;49.500;7.772;2024-02-04T15:13:37;9.00;99.90
13794;DHT22;31160;49.500;7.772;2024-02-04T15:16:04;9.00;99.90
13794;DHT22;31160;49.500;7.772;2024-02-04T15:18:31;9.00;99.90
13794;DHT22;31160;49.500;7.772;2024-02-04T15:20:59;9.00;99.90
13794;DHT22;31160;49.500;7.772;2024-02-04T15:23:26;9.00;99.90
13794;DHT22;31160;49.500;7.772;2024-02-04T15:25:53;9.10;99.90
13794;DHT22;31160;49.500;7.772;2024-02-04T15:28:20;9.20;99.90
13794;DHT22;31160;49.500;7.772;2024-02-04T15:30:48;9.20;99.90
13794;DHT22;31160;49.500;7.772;2024-02-04T15:33:15;9.20;99.90
13794;DHT22;31160;49.500;7.772;2024-02-04T15:35:42;9.00;99.90
13794;DHT22;31160;49.500;7.772;2024-02-04T15:38:09;8.90;99.90
13794;DHT22;31160;49.500;7.772;2024-02-04T15:40:35;8.90;99.90
13794;DHT22;31160;49.500;7.772;2024-02-04T15:43:03;9.00;99.90
13794;DHT22;31160;49.500;7.772;2024-02-04T15:45:31;9.00;99.90
13794;DHT22;31160;49.500;7.772;2024-02-04T15:48:02;9.10;99.90
13794;DHT22;31160;49.500;7.772;2024-02-04T15:50:31;9.10;99.90
13794;DHT22;31160;49.500;7.772;2024-02-04T15:53:03;9.00;99.90
13794;DHT22;31160;49.500;7.772;2024-02-04T15:55:30;8.90;99.90